Airport View

Enter AWOS ICAO identifier for current METAR.

ex. KFNL

KAPN 181154Z AUTO 14015G24KT 4SM -SN BR OVC010 M03/M04 A3006 RMK AO2 PK WND 13027/1144 SLP191 P0000 60005 70005 T10281044 11028 21050 58061 $

18 Jan 2020 12:18

Frequency: 120.675

Phone: 989-356-3662

Other Area AWOS: KPZQ - KOSC - CWNL - KGLR

TAF KAPN 181132Z 1812/1912 13015G26KT 2SM -SN BLSN OVC009 FM181700 13015G27KT 1/2SM SN OVC009 FM182100 12009KT 3/4SM -SN OVC006 FM190000 34011KT 1 1/2SM -SN OVC009 FM190100 32011G21KT 3SM -SN OVC011